WGN116 SACO-SCEL
Flight info
| Callsign | WGN116 |
|---|---|
| Flight time | 1h 8m |
| Altitude | 32000 |
| Route | ALDEX1C ALDEX UL531 SOLER UZ105 UMKAL UMKAL7B |
| Aircraft | MD11/H-SDE1E2E3FGHIJ2J3J4J5M1RWXY/LB1D1 |
Departure
| Time | 2026-05-06 17:56 |
|---|---|
| Airport | Ingeniero Aeronáutico Ambrosio L.V. Taravella International Airport (SACO) |
Arrival
| Time | 2026-05-06 19:04 |
|---|---|
| Airport | Comodoro Arturo Merino Benítez International Airport (SCEL) |
| Time | Latitude | Longitude | Altitude | Speed | Heading |
|---|---|---|---|---|---|
| 2026-05-06 17:39 | -31.31250 | -64.21053 | 1572 ft | 0 kts | 31° |
| 2026-05-06 17:49 | -31.31252 | -64.21053 | 1572 ft | 1 kts | 32° |
| 2026-05-06 17:49 | -31.31261 | -64.21066 | 1573 ft | 2 kts | 76° |
| 2026-05-06 17:50 | -31.31260 | -64.21083 | 1573 ft | 2 kts | 115° |
| 2026-05-06 17:50 | -31.31251 | -64.21096 | 1573 ft | 2 kts | 152° |
| 2026-05-06 17:50 | -31.31236 | -64.21100 | 1573 ft | 1 kts | 181° |
| 2026-05-06 17:50 | -31.31232 | -64.21100 | 1573 ft | 0 kts | 176° |
| 2026-05-06 17:52 | -31.31236 | -64.21100 | 1573 ft | 3 kts | 176° |
| 2026-05-06 17:53 | -31.31293 | -64.21092 | 1573 ft | 13 kts | 168° |
| 2026-05-06 17:53 | -31.31423 | -64.21043 | 1570 ft | 24 kts | 164° |
| 2026-05-06 17:53 | -31.31608 | -64.21026 | 1564 ft | 28 kts | 178° |
| 2026-05-06 17:53 | -31.31817 | -64.21024 | 1559 ft | 31 kts | 179° |
| 2026-05-06 17:54 | -31.32045 | -64.21022 | 1551 ft | 34 kts | 179° |
| 2026-05-06 17:54 | -31.32298 | -64.21014 | 1543 ft | 37 kts | 178° |
| 2026-05-06 17:54 | -31.32443 | -64.20943 | 1538 ft | 13 kts | 109° |
| 2026-05-06 17:54 | -31.32428 | -64.20833 | 1537 ft | 14 kts | 39° |
| 2026-05-06 17:55 | -31.32372 | -64.20820 | 1537 ft | 2 kts | 4° |
| 2026-05-06 17:55 | -31.32184 | -64.20815 | 1544 ft | 57 kts | 360° |
| 2026-05-06 17:55 | -31.31587 | -64.20824 | 1560 ft | 114 kts | 359° |
| 2026-05-06 17:55 | -31.30610 | -64.20837 | 1586 ft | 164 kts | 360° |
| 2026-05-06 17:56 | -31.29328 | -64.20843 | 1740 ft | 194 kts | 2° |
| 2026-05-06 17:56 | -31.28026 | -64.20834 | 2361 ft | 189 kts | 2° |
| 2026-05-06 17:56 | -31.26653 | -64.20816 | 2693 ft | 206 kts | 2° |
| 2026-05-06 17:56 | -31.25218 | -64.20835 | 3252 ft | 208 kts | 360° |
| 2026-05-06 17:57 | -31.23829 | -64.20898 | 4089 ft | 195 kts | 0° |
| 2026-05-06 17:57 | -31.22527 | -64.20952 | 4787 ft | 190 kts | 1° |
| 2026-05-06 17:57 | -31.21122 | -64.20989 | 4969 ft | 213 kts | 1° |
| 2026-05-06 17:57 | -31.19580 | -64.21228 | 5106 ft | 239 kts | 344° |
| 2026-05-06 17:58 | -31.18039 | -64.22232 | 5168 ft | 273 kts | 326° |
| 2026-05-06 17:58 | -31.16547 | -64.23631 | 6048 ft | 275 kts | 322° |
| 2026-05-06 17:58 | -31.15085 | -64.25083 | 6959 ft | 280 kts | 323° |
| 2026-05-06 17:58 | -31.13609 | -64.26539 | 7902 ft | 281 kts | 319° |
| 2026-05-06 17:59 | -31.12395 | -64.28330 | 8816 ft | 288 kts | 300° |
| 2026-05-06 17:59 | -31.11796 | -64.30560 | 9723 ft | 295 kts | 278° |
| 2026-05-06 17:59 | -31.11738 | -64.33008 | 10364 ft | 312 kts | 272° |
| 2026-05-06 17:59 | -31.11799 | -64.35658 | 10586 ft | 341 kts | 271° |
| 2026-05-06 18:00 | -31.11865 | -64.38519 | 10942 ft | 364 kts | 271° |
| 2026-05-06 18:00 | -31.11908 | -64.41573 | 11449 ft | 381 kts | 272° |
| 2026-05-06 18:00 | -31.11922 | -64.44704 | 12059 ft | 394 kts | 272° |
| 2026-05-06 18:00 | -31.11916 | -64.47925 | 13022 ft | 396 kts | 272° |
| 2026-05-06 18:01 | -31.11989 | -64.51124 | 14003 ft | 398 kts | 268° |
| 2026-05-06 18:01 | -31.12377 | -64.54330 | 14981 ft | 400 kts | 261° |
| 2026-05-06 18:01 | -31.13011 | -64.57494 | 15913 ft | 403 kts | 258° |
| 2026-05-06 18:01 | -31.13687 | -64.60641 | 16818 ft | 405 kts | 258° |
| 2026-05-06 18:02 | -31.14359 | -64.63837 | 17722 ft | 407 kts | 259° |
| 2026-05-06 18:02 | -31.15019 | -64.67045 | 18598 ft | 410 kts | 259° |
| 2026-05-06 18:02 | -31.15683 | -64.70289 | 19422 ft | 413 kts | 259° |
| 2026-05-06 18:02 | -31.16353 | -64.73566 | 20227 ft | 417 kts | 259° |
| 2026-05-06 18:03 | -31.17018 | -64.76856 | 21038 ft | 419 kts | 259° |
| 2026-05-06 18:03 | -31.17688 | -64.80184 | 21847 ft | 422 kts | 259° |
| 2026-05-06 18:03 | -31.18370 | -64.83556 | 22625 ft | 425 kts | 259° |
| 2026-05-06 18:03 | -31.19223 | -64.86879 | 23299 ft | 432 kts | 250° |
| 2026-05-06 18:04 | -31.20628 | -64.89967 | 23984 ft | 440 kts | 239° |
| 2026-05-06 18:04 | -31.22625 | -64.92767 | 24719 ft | 449 kts | 229° |
| 2026-05-06 18:04 | -31.25099 | -64.95055 | 25341 ft | 461 kts | 217° |
| 2026-05-06 18:04 | -31.27910 | -64.96899 | 25946 ft | 469 kts | 212° |
| 2026-05-06 18:05 | -31.30855 | -64.98608 | 26567 ft | 475 kts | 212° |
| 2026-05-06 18:05 | -31.33807 | -65.00288 | 27194 ft | 479 kts | 212° |
| 2026-05-06 18:05 | -31.36808 | -65.02022 | 27819 ft | 482 kts | 212° |
| 2026-05-06 18:05 | -31.39787 | -65.03790 | 28505 ft | 483 kts | 213° |
| 2026-05-06 18:06 | -31.42773 | -65.05588 | 29383 ft | 481 kts | 213° |
| 2026-05-06 18:06 | -31.45729 | -65.07375 | 30377 ft | 475 kts | 214° |
| 2026-05-06 18:06 | -31.48629 | -65.09135 | 31227 ft | 472 kts | 214° |
| 2026-05-06 18:06 | -31.51537 | -65.10905 | 31687 ft | 474 kts | 214° |
| 2026-05-06 18:07 | -31.54475 | -65.12688 | 31832 ft | 471 kts | 214° |
| 2026-05-06 18:07 | -31.57375 | -65.14439 | 31874 ft | 468 kts | 214° |
| 2026-05-06 18:07 | -31.62944 | -65.18244 | 31938 ft | 457 kts | 225° |
| 2026-05-06 18:08 | -31.67140 | -65.23669 | 31976 ft | 443 kts | 243° |
| 2026-05-06 18:08 | -31.69719 | -65.30089 | 31927 ft | 435 kts | 252° |
| 2026-05-06 18:09 | -31.71868 | -65.36684 | 31915 ft | 435 kts | 253° |
| 2026-05-06 18:09 | -31.74072 | -65.43334 | 31907 ft | 436 kts | 252° |
| 2026-05-06 18:10 | -31.76311 | -65.49887 | 31899 ft | 435 kts | 252° |
| 2026-05-06 18:10 | -31.78552 | -65.56499 | 31912 ft | 436 kts | 252° |
| 2026-05-06 18:11 | -31.80787 | -65.63095 | 31908 ft | 435 kts | 252° |
| 2026-05-06 18:11 | -31.83047 | -65.69730 | 31926 ft | 436 kts | 253° |
| 2026-05-06 18:12 | -31.85284 | -65.76288 | 31932 ft | 436 kts | 253° |
| 2026-05-06 18:12 | -31.87544 | -65.82916 | 31912 ft | 435 kts | 253° |
| 2026-05-06 18:13 | -31.89785 | -65.89473 | 31909 ft | 436 kts | 253° |
| 2026-05-06 18:13 | -31.92053 | -65.96093 | 31909 ft | 436 kts | 253° |
| 2026-05-06 18:14 | -31.94292 | -66.02705 | 31902 ft | 435 kts | 253° |
| 2026-05-06 18:14 | -31.96444 | -66.09330 | 31903 ft | 435 kts | 253° |
| 2026-05-06 18:15 | -31.98638 | -66.15977 | 31899 ft | 435 kts | 253° |
| 2026-05-06 18:15 | -32.00849 | -66.22586 | 31896 ft | 436 kts | 253° |
| 2026-05-06 18:16 | -32.03067 | -66.29231 | 31903 ft | 435 kts | 253° |
| 2026-05-06 18:16 | -32.05281 | -66.35862 | 31897 ft | 434 kts | 253° |
| 2026-05-06 18:17 | -32.07489 | -66.42444 | 31896 ft | 434 kts | 253° |
| 2026-05-06 18:17 | -32.09640 | -66.49063 | 31902 ft | 432 kts | 255° |
| 2026-05-06 18:18 | -32.11503 | -66.55800 | 31892 ft | 430 kts | 258° |
| 2026-05-06 18:18 | -32.13101 | -66.62528 | 31886 ft | 429 kts | 258° |
| 2026-05-06 18:19 | -32.14671 | -66.69341 | 31919 ft | 429 kts | 259° |
| 2026-05-06 18:19 | -32.16258 | -66.76141 | 31913 ft | 428 kts | 259° |
| 2026-05-06 18:20 | -32.17821 | -66.82873 | 31912 ft | 428 kts | 259° |
| 2026-05-06 18:20 | -32.19391 | -66.89644 | 31907 ft | 428 kts | 259° |
| 2026-05-06 18:21 | -32.20972 | -66.96402 | 31905 ft | 427 kts | 259° |
| 2026-05-06 18:21 | -32.22548 | -67.03146 | 31897 ft | 427 kts | 259° |
| 2026-05-06 18:22 | -32.24133 | -67.09918 | 31887 ft | 426 kts | 259° |
| 2026-05-06 18:22 | -32.25708 | -67.16622 | 31874 ft | 427 kts | 259° |
| 2026-05-06 18:23 | -32.27296 | -67.23368 | 31866 ft | 426 kts | 259° |
| 2026-05-06 18:23 | -32.28887 | -67.30107 | 31858 ft | 425 kts | 259° |
| 2026-05-06 18:24 | -32.30475 | -67.36831 | 31857 ft | 426 kts | 259° |
| 2026-05-06 18:24 | -32.32080 | -67.43600 | 31863 ft | 427 kts | 259° |
| 2026-05-06 18:25 | -32.33677 | -67.50325 | 31858 ft | 426 kts | 259° |
| 2026-05-06 18:25 | -32.35246 | -67.57098 | 31858 ft | 425 kts | 259° |
| 2026-05-06 18:26 | -32.36735 | -67.63836 | 31866 ft | 425 kts | 259° |
| 2026-05-06 18:26 | -32.38247 | -67.70634 | 31888 ft | 426 kts | 260° |
| 2026-05-06 18:27 | -32.39758 | -67.77355 | 31896 ft | 426 kts | 260° |
| 2026-05-06 18:27 | -32.41281 | -67.84119 | 31870 ft | 424 kts | 260° |
| 2026-05-06 18:28 | -32.42803 | -67.90868 | 31880 ft | 426 kts | 259° |
| 2026-05-06 18:28 | -32.44333 | -67.97629 | 31875 ft | 425 kts | 259° |
| 2026-05-06 18:29 | -32.45860 | -68.04366 | 31881 ft | 425 kts | 259° |
| 2026-05-06 18:29 | -32.47388 | -68.11097 | 31882 ft | 423 kts | 259° |
| 2026-05-06 18:30 | -32.48922 | -68.17821 | 31877 ft | 424 kts | 259° |
| 2026-05-06 18:30 | -32.50457 | -68.24553 | 31883 ft | 424 kts | 259° |
| 2026-05-06 18:31 | -32.52002 | -68.31298 | 31877 ft | 423 kts | 259° |
| 2026-05-06 18:31 | -32.53526 | -68.38034 | 31880 ft | 422 kts | 261° |
| 2026-05-06 18:32 | -32.54934 | -68.44761 | 31879 ft | 422 kts | 261° |
| 2026-05-06 18:32 | -32.56361 | -68.51513 | 31880 ft | 421 kts | 261° |
| 2026-05-06 18:33 | -32.57798 | -68.58227 | 31878 ft | 420 kts | 261° |
| 2026-05-06 18:33 | -32.59247 | -68.64946 | 31882 ft | 420 kts | 260° |
| 2026-05-06 18:34 | -32.60700 | -68.71673 | 31909 ft | 420 kts | 261° |
| 2026-05-06 18:34 | -32.62152 | -68.78348 | 31890 ft | 418 kts | 261° |
| 2026-05-06 18:35 | -32.63609 | -68.85046 | 31888 ft | 419 kts | 261° |
| 2026-05-06 18:35 | -32.65068 | -68.91747 | 31890 ft | 418 kts | 261° |
| 2026-05-06 18:36 | -32.66522 | -68.98383 | 31888 ft | 416 kts | 261° |
| 2026-05-06 18:36 | -32.67987 | -69.05081 | 31891 ft | 415 kts | 261° |
| 2026-05-06 18:37 | -32.69436 | -69.11678 | 31901 ft | 414 kts | 261° |
| 2026-05-06 18:37 | -32.70888 | -69.18274 | 31898 ft | 414 kts | 261° |
| 2026-05-06 18:38 | -32.72338 | -69.24847 | 31902 ft | 413 kts | 261° |
| 2026-05-06 18:38 | -32.73807 | -69.31502 | 31897 ft | 413 kts | 261° |
| 2026-05-06 18:39 | -32.75215 | -69.38104 | 31905 ft | 413 kts | 261° |
| 2026-05-06 18:40 | -32.77272 | -69.48013 | 31894 ft | 412 kts | 261° |
| 2026-05-06 18:40 | -32.78649 | -69.54602 | 31901 ft | 412 kts | 261° |
| 2026-05-06 18:41 | -32.80046 | -69.61236 | 31903 ft | 411 kts | 261° |
| 2026-05-06 18:41 | -32.81433 | -69.67808 | 31915 ft | 411 kts | 262° |
| 2026-05-06 18:42 | -32.82829 | -69.74400 | 31925 ft | 411 kts | 262° |
| 2026-05-06 18:42 | -32.84218 | -69.80966 | 31911 ft | 411 kts | 262° |
| 2026-05-06 18:43 | -32.85624 | -69.87584 | 31914 ft | 410 kts | 261° |
| 2026-05-06 18:43 | -32.87009 | -69.94113 | 31938 ft | 407 kts | 262° |
| 2026-05-06 18:44 | -32.87824 | -70.00724 | 31980 ft | 400 kts | 271° |
| 2026-05-06 18:44 | -32.87583 | -70.07285 | 32015 ft | 395 kts | 278° |
| 2026-05-06 18:45 | -32.87033 | -70.13796 | 31796 ft | 395 kts | 278° |
| 2026-05-06 18:45 | -32.86745 | -70.17049 | 31466 ft | 390 kts | 278° |
| 2026-05-06 18:45 | -32.86454 | -70.20277 | 31164 ft | 389 kts | 278° |
| 2026-05-06 18:45 | -32.86160 | -70.23496 | 30892 ft | 394 kts | 278° |
| 2026-05-06 18:46 | -32.85813 | -70.26729 | 30628 ft | 397 kts | 279° |
| 2026-05-06 18:46 | -32.85403 | -70.30018 | 30347 ft | 398 kts | 280° |
| 2026-05-06 18:46 | -32.84968 | -70.33242 | 30052 ft | 398 kts | 280° |
| 2026-05-06 18:46 | -32.84507 | -70.36521 | 29752 ft | 399 kts | 281° |
| 2026-05-06 18:47 | -32.84040 | -70.39766 | 29455 ft | 402 kts | 281° |
| 2026-05-06 18:47 | -32.83561 | -70.43059 | 29162 ft | 404 kts | 281° |
| 2026-05-06 18:47 | -32.83080 | -70.46390 | 28379 ft | 409 kts | 279° |
| 2026-05-06 18:47 | -32.83050 | -70.49805 | 27260 ft | 424 kts | 265° |
| 2026-05-06 18:48 | -32.83798 | -70.53223 | 26165 ft | 441 kts | 252° |
| 2026-05-06 18:48 | -32.85296 | -70.56480 | 25202 ft | 456 kts | 238° |
| 2026-05-06 18:48 | -32.87455 | -70.59264 | 24659 ft | 462 kts | 225° |
| 2026-05-06 18:48 | -32.90137 | -70.61361 | 24202 ft | 468 kts | 211° |
| 2026-05-06 18:49 | -32.93215 | -70.62711 | 23647 ft | 473 kts | 201° |
| 2026-05-06 18:49 | -32.96378 | -70.63753 | 23061 ft | 473 kts | 200° |
| 2026-05-06 18:49 | -32.99502 | -70.64815 | 22556 ft | 470 kts | 201° |
| 2026-05-06 18:49 | -33.02614 | -70.65973 | 22062 ft | 466 kts | 203° |
| 2026-05-06 18:50 | -33.05649 | -70.67191 | 21497 ft | 465 kts | 204° |
| 2026-05-06 18:50 | -33.08699 | -70.68481 | 20930 ft | 462 kts | 204° |
| 2026-05-06 18:50 | -33.11703 | -70.69797 | 20351 ft | 460 kts | 205° |
| 2026-05-06 18:50 | -33.14665 | -70.71124 | 19741 ft | 457 kts | 204° |
| 2026-05-06 18:51 | -33.17593 | -70.72501 | 19087 ft | 451 kts | 210° |
| 2026-05-06 18:51 | -33.20167 | -70.74495 | 18367 ft | 441 kts | 224° |
| 2026-05-06 18:51 | -33.22185 | -70.77177 | 17630 ft | 432 kts | 239° |
| 2026-05-06 18:51 | -33.23514 | -70.80344 | 16886 ft | 423 kts | 254° |
| 2026-05-06 18:52 | -33.24061 | -70.83710 | 16128 ft | 415 kts | 269° |
| 2026-05-06 18:52 | -33.23810 | -70.87132 | 15299 ft | 409 kts | 284° |
| 2026-05-06 18:52 | -33.22787 | -70.90247 | 14435 ft | 404 kts | 300° |
| 2026-05-06 18:52 | -33.21078 | -70.92846 | 13550 ft | 402 kts | 316° |
| 2026-05-06 18:53 | -33.18796 | -70.94737 | 12649 ft | 400 kts | 333° |
| 2026-05-06 18:53 | -33.16220 | -70.95811 | 12212 ft | 387 kts | 344° |
| 2026-05-06 18:53 | -33.13674 | -70.96439 | 12069 ft | 359 kts | 348° |
| 2026-05-06 18:53 | -33.11288 | -70.96851 | 12051 ft | 340 kts | 351° |
| 2026-05-06 18:54 | -33.08986 | -70.97173 | 11853 ft | 330 kts | 351° |
| 2026-05-06 18:54 | -33.06731 | -70.97453 | 11024 ft | 325 kts | 352° |
| 2026-05-06 18:54 | -33.04531 | -70.97713 | 10584 ft | 310 kts | 352° |
| 2026-05-06 18:54 | -33.02455 | -70.97951 | 10194 ft | 296 kts | 354° |
| 2026-05-06 18:55 | -33.00468 | -70.97644 | 9828 ft | 286 kts | 21° |
| 2026-05-06 18:55 | -32.98869 | -70.96355 | 9506 ft | 278 kts | 47° |
| 2026-05-06 18:55 | -32.97921 | -70.94352 | 9170 ft | 281 kts | 72° |
| 2026-05-06 18:55 | -32.97543 | -70.92078 | 8823 ft | 283 kts | 83° |
| 2026-05-06 18:56 | -32.97483 | -70.89714 | 8398 ft | 284 kts | 98° |
| 2026-05-06 18:56 | -32.98135 | -70.87542 | 8007 ft | 284 kts | 122° |
| 2026-05-06 18:56 | -32.99320 | -70.85677 | 7524 ft | 284 kts | 133° |
| 2026-05-06 18:56 | -33.00799 | -70.84151 | 6959 ft | 280 kts | 154° |
| 2026-05-06 18:57 | -33.02595 | -70.83380 | 6462 ft | 275 kts | 170° |
| 2026-05-06 18:57 | -33.04477 | -70.83037 | 5954 ft | 273 kts | 176° |
| 2026-05-06 18:57 | -33.06364 | -70.82890 | 5428 ft | 272 kts | 180° |
| 2026-05-06 18:57 | -33.08246 | -70.82842 | 4989 ft | 267 kts | 181° |
| 2026-05-06 18:58 | -33.10009 | -70.82692 | 4903 ft | 247 kts | 167° |
| 2026-05-06 18:58 | -33.11615 | -70.82082 | 4958 ft | 241 kts | 165° |
| 2026-05-06 18:58 | -33.13236 | -70.81667 | 4914 ft | 236 kts | 176° |
| 2026-05-06 18:58 | -33.14775 | -70.81560 | 4939 ft | 209 kts | 181° |
| 2026-05-06 18:59 | -33.16151 | -70.81522 | 4890 ft | 190 kts | 180° |
| 2026-05-06 18:59 | -33.17441 | -70.81454 | 4934 ft | 183 kts | 179° |
| 2026-05-06 18:59 | -33.18708 | -70.81371 | 4952 ft | 185 kts | 179° |
| 2026-05-06 18:59 | -33.20003 | -70.81289 | 4835 ft | 188 kts | 180° |
| 2026-05-06 19:00 | -33.21316 | -70.81220 | 4631 ft | 189 kts | 180° |
| 2026-05-06 19:00 | -33.22625 | -70.81152 | 4391 ft | 188 kts | 180° |
| 2026-05-06 19:00 | -33.23933 | -70.81081 | 4144 ft | 185 kts | 180° |
| 2026-05-06 19:00 | -33.25209 | -70.81009 | 3901 ft | 181 kts | 180° |
| 2026-05-06 19:01 | -33.26447 | -70.80942 | 3667 ft | 176 kts | 180° |
| 2026-05-06 19:01 | -33.26849 | -70.80921 | 3590 ft | 175 kts | 180° |
| 2026-05-06 19:01 | -33.28896 | -70.80818 | 3199 ft | 180 kts | 180° |
| 2026-05-06 19:01 | -33.30147 | -70.80746 | 2955 ft | 183 kts | 181° |
| 2026-05-06 19:02 | -33.31399 | -70.80683 | 2710 ft | 177 kts | 181° |
| 2026-05-06 19:02 | -33.32594 | -70.80630 | 2482 ft | 166 kts | 180° |
| 2026-05-06 19:02 | -33.33702 | -70.80566 | 2275 ft | 155 kts | 180° |
| 2026-05-06 19:02 | -33.34786 | -70.80492 | 2078 ft | 159 kts | 179° |
| 2026-05-06 19:03 | -33.35941 | -70.80420 | 1863 ft | 170 kts | 180° |
| 2026-05-06 19:03 | -33.37081 | -70.80376 | 1677 ft | 158 kts | 181° |
| 2026-05-06 19:03 | -33.38110 | -70.80328 | 1576 ft | 135 kts | 179° |
| 2026-05-06 19:03 | -33.38811 | -70.80293 | 1575 ft | 59 kts | 179° |
| 2026-05-06 19:04 | -33.39086 | -70.80287 | 1573 ft | 60 kts | 177° |
| 2026-05-06 19:04 | -33.39637 | -70.80248 | 1575 ft | 54 kts | 176° |
| 2026-05-06 19:04 | -33.40009 | -70.80239 | 1576 ft | 51 kts | 178° |
| 2026-05-06 19:04 | -33.40307 | -70.80215 | 1579 ft | 28 kts | 178° |
| 2026-05-06 19:05 | -33.40472 | -70.80191 | 1581 ft | 19 kts | 151° |
| 2026-05-06 19:05 | -33.40559 | -70.80134 | 1581 ft | 9 kts | 194° |
| 2026-05-06 19:05 | -33.40557 | -70.80183 | 1581 ft | 11 kts | 336° |
| 2026-05-06 19:05 | -33.40436 | -70.80198 | 1580 ft | 24 kts | 359° |
| 2026-05-06 19:06 | -33.40228 | -70.80208 | 1578 ft | 35 kts | 357° |
| 2026-05-06 19:06 | -33.39937 | -70.80222 | 1575 ft | 46 kts | 360° |
| 2026-05-06 19:06 | -33.39623 | -70.80239 | 1574 ft | 44 kts | 358° |
| 2026-05-06 19:06 | -33.39356 | -70.80254 | 1571 ft | 13 kts | 356° |
| 2026-05-06 19:07 | -33.39317 | -70.80238 | 1571 ft | 4 kts | 62° |
| 2026-05-06 19:07 | -33.39320 | -70.80210 | 1571 ft | 3 kts | 128° |
| 2026-05-06 19:07 | -33.39346 | -70.80187 | 1571 ft | 7 kts | 146° |
| 2026-05-06 19:07 | -33.39411 | -70.80136 | 1572 ft | 12 kts | 149° |
| 2026-05-06 19:08 | -33.39475 | -70.80087 | 1573 ft | 9 kts | 140° |
| 2026-05-06 19:08 | -33.39505 | -70.80025 | 1574 ft | 8 kts | 100° |
| 2026-05-06 19:08 | -33.39503 | -70.79949 | 1575 ft | 10 kts | 88° |
| 2026-05-06 19:08 | -33.39500 | -70.79850 | 1575 ft | 13 kts | 88° |
| 2026-05-06 19:09 | -33.39496 | -70.79735 | 1578 ft | 13 kts | 88° |
| 2026-05-06 19:09 | -33.39493 | -70.79622 | 1583 ft | 13 kts | 88° |
| 2026-05-06 19:09 | -33.39491 | -70.79507 | 1587 ft | 13 kts | 89° |
| 2026-05-06 19:09 | -33.39489 | -70.79388 | 1590 ft | 15 kts | 89° |
| 2026-05-06 19:10 | -33.39487 | -70.79253 | 1592 ft | 16 kts | 88° |
| 2026-05-06 19:10 | -33.39478 | -70.79107 | 1594 ft | 18 kts | 86° |
| 2026-05-06 19:10 | -33.39472 | -70.78975 | 1593 ft | 3 kts | 88° |
| 2026-05-06 19:10 | -33.39472 | -70.78969 | 1593 ft | 1 kts | 90° |
| 2026-05-06 19:11 | -33.39480 | -70.78934 | 1593 ft | 7 kts | 121° |
| 2026-05-06 19:11 | -33.39541 | -70.78906 | 1592 ft | 12 kts | 194° |
| 2026-05-06 19:11 | -33.39643 | -70.78925 | 1593 ft | 17 kts | 178° |
| 2026-05-06 19:11 | -33.39760 | -70.78921 | 1593 ft | 15 kts | 180° |
| 2026-05-06 19:12 | -33.39820 | -70.78968 | 1594 ft | 7 kts | 251° |